Aviation Digital Data Service (ADDS)

Output produced by METARs form (1633 UTC 23 January 2019)
found at http://www.aviationweather.gov/metar/data/
 
Forecast for: KSJC (SAN JOSE , CA, US)
Text: KSJC 231120Z 2312/2412 VRB03KT P6SM SKC
Forecast period: 1200 to 1900 UTC 23 January 2019
Forecast type: FROM: standard forecast or significant change
Winds: variable direction winds at 3 MPH (3 knots; 1.5 m/s)
Visibility: 6 or more miles 10+ km)
Clouds: clear skies
Weather: no significant weather forecast for this period
Text: FM231900 31006KT P6SM SCT200
Forecast period: 1900 UTC 23 January 2019 to 0400 UTC 24 January 2019
Forecast type: FROM: standard forecast or significant change
Winds: from the NW (310 degrees) at 7 MPH (6 knots; 3.1 m/s)
Visibility: 6 or more miles 10+ km)
Ceiling: at least 12,000 feet AGL
Clouds: scattered clouds at 20000 feet AGL
Weather: no significant weather forecast for this period
Text: FM240400 00000KT P6SM FEW200
Forecast period: 0400 to 1200 UTC 24 January 2019
Forecast type: FROM: standard forecast or significant change
Winds: calm
Visibility: 6 or more miles 10+ km)
Ceiling: at least 12,000 feet AGL
Clouds: few clouds at 20000 feet AGL
Weather: no significant weather forecast for this period